createdAt,value
2023-04-04T00:00:41.680Z,1.60
2023-04-04T00:03:10.319Z,1.65
2023-04-04T00:05:38.585Z,1.77
2023-04-04T00:08:08.709Z,1.63
2023-04-04T00:10:37.036Z,1.70
2023-04-04T00:13:05.918Z,1.48
2023-04-04T00:15:36.208Z,1.30
2023-04-04T00:18:05.064Z,1.75
2023-04-04T00:20:33.547Z,1.98
2023-04-04T00:23:01.803Z,2.05
2023-04-04T00:25:31.405Z,1.70
2023-04-04T00:28:01.438Z,1.90
2023-04-04T00:30:29.918Z,2.00
2023-04-04T00:32:58.426Z,1.63
2023-04-04T00:35:26.863Z,1.65
2023-04-04T00:37:55.115Z,1.63
2023-04-04T00:40:23.730Z,1.50
2023-04-04T00:42:54.424Z,1.60
2023-04-04T00:45:22.961Z,1.90
2023-04-04T00:47:52.789Z,1.70
2023-04-04T00:50:21.822Z,1.60
2023-04-04T00:52:50.153Z,1.58
2023-04-04T00:55:18.519Z,2.00
2023-04-04T00:57:48.122Z,2.20
2023-04-04T01:00:18.063Z,1.77
2023-04-04T01:02:46.707Z,2.00
2023-04-04T01:05:15.061Z,2.13
2023-04-04T01:07:43.826Z,1.77
2023-04-04T01:10:13.555Z,2.35
2023-04-04T01:12:44.512Z,1.80
2023-04-04T01:15:13.167Z,1.55
2023-04-04T01:17:44.857Z,1.70
2023-04-04T01:20:16.680Z,1.73
2023-04-04T01:22:53.864Z,1.70
2023-04-04T01:25:30.234Z,1.40
2023-04-04T01:28:00.381Z,1.63
2023-04-04T01:30:35.579Z,1.30
2023-04-04T01:33:10.775Z,1.85
2023-04-04T01:35:50.720Z,1.90
2023-04-04T01:38:25.894Z,1.67
2023-04-04T01:41:01.156Z,1.55
2023-04-04T01:43:31.498Z,1.65
2023-04-04T01:46:01.392Z,1.95
2023-04-04T01:48:30.292Z,1.45
2023-04-04T01:51:03.789Z,1.65
2023-04-04T01:53:32.248Z,1.42
2023-04-04T01:56:01.889Z,1.60
2023-04-04T01:58:32.769Z,2.03
2023-04-04T02:01:02.332Z,1.55
2023-04-04T02:03:30.653Z,2.03
2023-04-04T02:05:59.029Z,1.88
2023-04-04T02:08:27.463Z,1.52
2023-04-04T02:11:00.524Z,1.30
2023-04-04T02:16:00.989Z,1.70
2023-04-04T02:18:29.625Z,1.55
2023-04-04T02:20:58.342Z,1.73
2023-04-04T02:23:26.606Z,1.35
2023-04-04T02:25:56.065Z,1.60
2023-04-04T02:28:24.381Z,1.35
2023-04-04T02:30:54.202Z,1.52
2023-04-04T02:33:22.401Z,1.73
2023-04-04T02:35:52.416Z,1.52
2023-04-04T02:38:20.761Z,1.35
2023-04-04T02:40:50.128Z,1.38
2023-04-04T02:43:18.566Z,1.48
2023-04-04T02:45:49.837Z,1.63
2023-04-04T02:48:27.446Z,1.38
2023-04-04T02:50:59.721Z,1.70
2023-04-04T02:53:28.211Z,1.50
2023-04-04T02:56:03.729Z,1.60
2023-04-04T02:58:33.372Z,1.63
2023-04-04T03:01:01.756Z,1.42
2023-04-04T03:03:37.319Z,1.35
2023-04-04T03:06:06.003Z,1.60
2023-04-04T03:08:35.625Z,1.50
2023-04-04T03:11:03.878Z,1.50
2023-04-04T03:13:32.277Z,1.75
2023-04-04T03:16:02.779Z,1.67
2023-04-04T03:18:36.689Z,1.50
2023-04-04T03:21:05.186Z,1.30
2023-04-04T03:23:33.679Z,1.35
2023-04-04T03:26:02.207Z,1.38
2023-04-04T03:28:31.134Z,1.52
2023-04-04T03:31:05.508Z,1.80
2023-04-04T03:33:38.979Z,1.50
2023-04-04T03:36:12.213Z,1.70
2023-04-04T03:38:40.991Z,1.60
2023-04-04T03:41:11.172Z,1.42
2023-04-04T03:43:39.439Z,1.50
2023-04-04T03:46:08.152Z,1.92
2023-04-04T03:48:38.107Z,1.90
2023-04-04T03:51:09.560Z,1.80
2023-04-04T03:53:39.012Z,1.35
2023-04-04T03:56:07.517Z,1.85
2023-04-04T03:58:37.194Z,1.73
2023-04-04T04:01:05.543Z,1.60
2023-04-04T04:03:34.002Z,1.75
2023-04-04T04:06:03.909Z,1.55
2023-04-04T04:08:32.592Z,1.33
2023-04-04T04:11:05.682Z,2.10
2023-04-04T04:13:36.019Z,1.77
2023-04-04T04:16:04.861Z,1.90
2023-04-04T04:18:33.658Z,1.60
2023-04-04T04:21:05.077Z,1.63
2023-04-04T04:23:34.884Z,1.60
2023-04-04T04:26:03.711Z,1.88
2023-04-04T04:28:33.289Z,1.60
2023-04-04T04:31:06.670Z,2.28
2023-04-04T04:33:36.662Z,1.88
2023-04-04T04:36:08.616Z,2.20
2023-04-04T04:38:49.573Z,1.80
2023-04-04T04:41:18.148Z,1.65
2023-04-04T04:43:50.605Z,1.75
2023-04-04T04:46:18.883Z,1.88
2023-04-04T04:48:47.669Z,1.92
2023-04-04T04:51:19.226Z,1.70
2023-04-04T04:53:52.370Z,1.90
2023-04-04T04:56:21.395Z,1.90
2023-04-04T04:58:52.518Z,1.90
2023-04-04T05:01:24.393Z,1.90
2023-04-04T05:03:53.591Z,2.20
2023-04-04T05:06:29.871Z,2.20
2023-04-04T05:08:58.256Z,2.33
2023-04-04T05:11:31.156Z,2.03
2023-04-04T05:14:00.414Z,1.92
2023-04-04T05:16:31.166Z,2.53
2023-04-04T05:19:00.253Z,2.53
2023-04-04T05:21:30.792Z,2.63
2023-04-04T05:24:01.200Z,2.42
2023-04-04T05:26:30.259Z,2.08
2023-04-04T05:28:59.792Z,2.25
2023-04-04T05:31:30.347Z,1.73
2023-04-04T05:34:07.958Z,1.75
2023-04-04T05:36:38.709Z,2.22
2023-04-04T05:39:08.288Z,1.92
2023-04-04T05:41:42.705Z,2.05
2023-04-04T05:44:16.324Z,2.00
2023-04-04T05:46:44.750Z,1.95
2023-04-04T05:49:14.007Z,1.98
2023-04-04T05:51:50.048Z,2.40
2023-04-04T05:54:18.609Z,2.38
2023-04-04T05:56:47.582Z,2.28
2023-04-04T05:59:30.524Z,2.20
2023-04-04T06:02:02.956Z,2.20
2023-04-04T06:04:32.586Z,2.40
2023-04-04T06:07:04.620Z,2.22
2023-04-04T06:09:33.671Z,2.20
2023-04-04T06:12:01.996Z,2.22
2023-04-04T06:14:30.608Z,2.35
2023-04-04T06:17:00.821Z,2.10
2023-04-04T06:19:29.127Z,2.95
2023-04-04T06:21:57.594Z,2.53
2023-04-04T06:24:28.150Z,2.20
2023-04-04T06:26:56.385Z,2.40
2023-04-04T06:29:27.421Z,2.50
2023-04-04T06:31:59.510Z,2.50
2023-04-04T06:34:36.869Z,2.50
2023-04-04T06:37:06.007Z,2.13
2023-04-04T06:39:42.776Z,2.45
2023-04-04T06:42:20.402Z,2.35
2023-04-04T06:44:51.300Z,2.42
2023-04-04T06:47:20.549Z,2.58
2023-04-04T06:49:48.825Z,2.45
2023-04-04T06:52:18.870Z,2.40
2023-04-04T06:54:48.596Z,2.30
2023-04-04T06:57:18.298Z,2.60
2023-04-04T06:59:46.566Z,2.60
2023-04-04T07:02:14.866Z,2.58
2023-04-04T07:04:43.149Z,2.78
2023-04-04T07:07:12.591Z,2.60
2023-04-04T07:09:40.846Z,2.95
2023-04-04T07:12:10.549Z,2.60
2023-04-04T07:14:38.774Z,3.08
2023-04-04T07:17:17.200Z,2.47
2023-04-04T07:19:50.107Z,2.45
2023-04-04T07:22:18.393Z,2.58
2023-04-04T07:24:48.258Z,2.80
2023-04-04T07:27:17.990Z,2.35
2023-04-04T07:29:46.205Z,2.60
2023-04-04T07:32:14.562Z,2.90
2023-04-04T07:34:42.906Z,2.90
2023-04-04T07:37:11.119Z,3.00
2023-04-04T07:39:39.386Z,2.90
2023-04-04T07:42:07.871Z,2.58
2023-04-04T07:44:37.564Z,2.78
2023-04-04T07:47:09.914Z,2.70
2023-04-04T07:49:38.945Z,2.95
2023-04-04T07:52:07.483Z,2.50
2023-04-04T07:54:35.940Z,3.10
2023-04-04T07:57:05.568Z,2.53
2023-04-04T07:59:33.973Z,2.78
2023-04-04T08:02:03.619Z,2.75
2023-04-04T08:04:32.709Z,3.60
2023-04-04T08:07:00.983Z,2.78
2023-04-04T08:09:31.458Z,2.60
2023-04-04T08:11:59.761Z,3.08
2023-04-04T08:14:27.982Z,2.90
2023-04-04T08:16:56.363Z,3.03
2023-04-04T08:19:26.066Z,2.90
2023-04-04T08:21:54.622Z,2.67
2023-04-04T08:24:22.933Z,3.00
2023-04-04T08:26:58.322Z,2.70
2023-04-04T08:29:34.367Z,2.78
2023-04-04T08:32:02.777Z,2.80
2023-04-04T08:34:32.756Z,2.47
2023-04-04T08:37:01.146Z,2.78
2023-04-04T08:39:29.316Z,2.70
2023-04-04T08:42:05.362Z,2.65
2023-04-04T08:44:34.950Z,2.60
2023-04-04T08:47:06.489Z,2.60
2023-04-04T08:52:10.217Z,2.88
2023-04-04T08:54:40.925Z,2.92
2023-04-04T08:57:09.567Z,2.50
2023-04-04T08:59:37.983Z,2.80
2023-04-04T09:02:26.398Z,2.45
2023-04-04T09:05:05.522Z,2.67
2023-04-04T09:07:38.937Z,2.60
2023-04-04T09:10:10.886Z,2.65
2023-04-04T09:12:42.730Z,2.50
2023-04-04T09:15:12.338Z,2.55
2023-04-04T09:17:40.574Z,2.30
2023-04-04T09:20:38.300Z,2.67
2023-04-04T09:23:08.178Z,2.72
2023-04-04T09:25:37.188Z,2.80
2023-04-04T09:28:06.275Z,2.85
2023-04-04T09:30:35.796Z,2.63
2023-04-04T09:33:06.013Z,2.50
2023-04-04T09:35:36.582Z,2.50
2023-04-04T09:38:07.556Z,2.70
2023-04-04T09:40:37.015Z,2.65
2023-04-04T09:43:10.047Z,2.67
2023-04-04T09:45:42.057Z,2.63
2023-04-04T09:48:11.520Z,2.83
2023-04-04T09:50:47.301Z,2.53
2023-04-04T09:53:19.889Z,4.05
2023-04-04T09:55:52.408Z,5.80
2023-04-04T09:58:25.754Z,3.83
2023-04-04T10:00:56.231Z,3.72
2023-04-04T10:03:25.576Z,3.05
2023-04-04T10:06:00.220Z,3.05
2023-04-04T10:08:31.185Z,2.80
2023-04-04T10:11:09.704Z,2.70
2023-04-04T10:13:41.708Z,3.03
2023-04-04T10:16:11.384Z,3.42
2023-04-04T10:18:40.864Z,2.92
2023-04-04T10:23:44.057Z,3.05
2023-04-04T10:26:14.290Z,3.03
2023-04-04T10:28:43.843Z,3.00
2023-04-04T10:31:19.889Z,2.65
2023-04-04T10:33:57.148Z,2.63
2023-04-04T10:36:29.520Z,2.75
2023-04-04T10:39:09.514Z,2.75
2023-04-04T10:41:38.591Z,2.90
2023-04-04T10:44:15.980Z,3.00
2023-04-04T10:46:47.562Z,2.85
2023-04-04T10:51:55.045Z,2.63
2023-04-04T10:54:27.652Z,2.80
2023-04-04T10:57:00.580Z,2.50
2023-04-04T10:59:29.012Z,2.78
2023-04-04T11:01:58.791Z,3.20
2023-04-04T11:04:33.173Z,2.83
2023-04-04T11:07:29.926Z,3.05
2023-04-04T11:10:02.514Z,2.95
2023-04-04T11:12:34.122Z,2.80
2023-04-04T11:18:02.849Z,2.58
2023-04-04T11:20:36.730Z,3.03
2023-04-04T11:23:10.823Z,3.05
2023-04-04T11:25:51.364Z,3.40
2023-04-04T11:28:44.987Z,2.67
2023-04-04T11:31:28.990Z,2.80
2023-04-04T11:33:59.615Z,2.95
2023-04-04T11:36:56.041Z,3.03
2023-04-04T11:39:28.759Z,2.88
2023-04-04T11:42:03.565Z,2.95
2023-04-04T11:44:33.586Z,2.85
2023-04-04T11:47:12.747Z,2.95
2023-04-04T11:49:42.432Z,2.75
2023-04-04T11:52:12.252Z,2.83
2023-04-04T11:54:41.624Z,2.90
2023-04-04T11:57:13.053Z,2.47
2023-04-04T11:59:42.319Z,3.08
2023-04-04T12:02:11.317Z,2.70
2023-04-04T12:04:44.610Z,2.50
2023-04-04T12:07:14.072Z,2.90
2023-04-04T12:09:43.454Z,2.80
2023-04-04T12:12:16.453Z,2.30
2023-04-04T12:14:45.080Z,3.08
2023-04-04T12:17:14.422Z,3.08
2023-04-04T12:19:44.635Z,2.70
2023-04-04T12:22:12.849Z,3.33
2023-04-04T12:24:41.362Z,3.15
2023-04-04T12:27:09.762Z,2.70
2023-04-04T12:29:39.584Z,3.63
2023-04-04T12:32:10.702Z,3.60
2023-04-04T12:34:48.678Z,2.80
2023-04-04T12:37:19.604Z,2.88
2023-04-04T12:39:49.935Z,2.85
2023-04-04T12:42:23.544Z,3.25
2023-04-04T12:44:54.806Z,3.20
2023-04-04T12:47:26.268Z,2.72
2023-04-04T12:49:56.030Z,3.10
2023-04-04T12:52:29.614Z,2.97
2023-04-04T12:55:08.127Z,3.25
2023-04-04T12:57:39.774Z,3.20
2023-04-04T13:00:10.768Z,3.10
2023-04-04T13:02:40.276Z,3.10
2023-04-04T13:05:11.304Z,3.08
2023-04-04T13:07:44.337Z,3.25
2023-04-04T13:10:16.219Z,3.45
2023-04-04T13:13:00.052Z,3.20
2023-04-04T13:15:52.038Z,3.85
2023-04-04T13:18:22.621Z,4.03
2023-04-04T13:20:51.499Z,3.42
2023-04-04T13:23:20.469Z,3.80
2023-04-04T13:25:48.891Z,3.85
2023-04-04T13:28:17.504Z,3.65
2023-04-04T13:30:49.227Z,3.28
2023-04-04T13:33:19.992Z,3.20
2023-04-04T13:35:48.231Z,3.15
2023-04-04T13:38:17.325Z,3.05
2023-04-04T13:40:45.806Z,3.35
2023-04-04T13:43:15.225Z,2.97
2023-04-04T13:45:44.270Z,3.25
2023-04-04T13:48:13.192Z,2.75
2023-04-04T13:50:44.603Z,2.80
2023-04-04T13:53:12.948Z,2.88
2023-04-04T13:55:52.028Z,2.90
2023-04-04T13:58:29.938Z,3.03
2023-04-04T14:00:58.211Z,2.75
2023-04-04T14:03:26.644Z,2.72
2023-04-04T14:05:56.267Z,2.88
2023-04-04T14:08:24.592Z,3.00
2023-04-04T14:10:52.838Z,3.10
2023-04-04T14:13:21.439Z,2.67
2023-04-04T14:15:50.468Z,3.00
2023-04-04T14:18:18.816Z,2.50
2023-04-04T14:20:47.662Z,2.55
2023-04-04T14:23:17.293Z,2.55
2023-04-04T14:25:45.611Z,2.78
2023-04-04T14:28:13.864Z,2.90
2023-04-04T14:30:42.434Z,2.70
2023-04-04T14:33:11.107Z,2.97
2023-04-04T14:35:39.706Z,2.97
2023-04-04T14:38:08.196Z,3.13
2023-04-04T14:40:37.860Z,3.13
2023-04-04T14:43:06.063Z,3.05
2023-04-04T14:45:34.689Z,3.05
2023-04-04T14:48:02.980Z,3.08
2023-04-04T14:50:31.328Z,3.08
2023-04-04T14:52:59.586Z,2.80
2023-04-04T14:55:27.969Z,3.00
2023-04-04T14:58:02.637Z,2.83
2023-04-04T15:00:31.773Z,3.03
2023-04-04T15:03:00.039Z,3.10
2023-04-04T15:05:28.474Z,2.78
2023-04-04T15:07:56.761Z,2.88
2023-04-04T15:10:25.087Z,2.63
2023-04-04T15:12:53.372Z,3.05
2023-04-04T15:15:23.735Z,3.13
2023-04-04T15:17:52.420Z,3.00
2023-04-04T15:20:20.745Z,2.95
2023-04-04T15:22:48.990Z,2.88
2023-04-04T15:25:17.208Z,2.90
2023-04-04T15:27:45.499Z,2.60
2023-04-04T15:30:15.041Z,3.08
2023-04-04T15:32:44.677Z,2.80
2023-04-04T15:35:18.348Z,3.28
2023-04-04T15:37:46.625Z,3.17
2023-04-04T15:40:15.866Z,2.63
2023-04-04T15:42:44.378Z,2.55
2023-04-04T15:45:14.158Z,2.90
2023-04-04T15:47:43.698Z,3.00
2023-04-04T15:50:13.634Z,3.03
2023-04-04T15:52:42.001Z,2.80
2023-04-04T15:55:13.681Z,2.97
2023-04-04T15:57:44.550Z,2.92
2023-04-04T16:00:14.704Z,2.83
2023-04-04T16:02:43.261Z,2.70
2023-04-04T16:05:13.337Z,2.58
2023-04-04T16:07:41.572Z,2.80
2023-04-04T16:10:11.178Z,2.67
2023-04-04T16:12:39.497Z,2.90
2023-04-04T16:15:09.327Z,3.10
2023-04-04T16:17:37.593Z,2.70
2023-04-04T16:20:07.431Z,3.00
2023-04-04T16:22:37.346Z,2.90
2023-04-04T16:25:08.542Z,3.22
2023-04-04T16:27:36.891Z,3.00
2023-04-04T16:30:06.149Z,3.40
2023-04-04T16:32:34.568Z,3.15
2023-04-04T16:35:02.959Z,3.47
2023-04-04T16:37:31.449Z,3.10
2023-04-04T16:40:01.400Z,3.10
2023-04-04T16:42:29.667Z,3.22
2023-04-04T16:44:58.273Z,3.20
2023-04-04T16:47:28.068Z,3.10
2023-04-04T16:49:56.690Z,2.83
2023-04-04T16:52:24.870Z,2.75
2023-04-04T16:54:54.408Z,2.40
2023-04-04T16:57:24.110Z,3.15
2023-04-04T16:59:52.361Z,3.00
2023-04-04T17:02:20.924Z,3.38
2023-04-04T17:04:49.265Z,2.90
2023-04-04T17:07:17.518Z,2.60
2023-04-04T17:09:47.237Z,3.00
2023-04-04T17:12:16.875Z,2.83
2023-04-04T17:14:46.597Z,2.65
2023-04-04T17:17:15.354Z,2.70
2023-04-04T17:19:43.594Z,2.67
2023-04-04T17:22:12.098Z,2.67
2023-04-04T17:24:40.703Z,3.65
2023-04-04T17:27:08.932Z,3.15
2023-04-04T17:29:37.464Z,3.30
2023-04-04T17:32:07.260Z,3.13
2023-04-04T17:34:35.726Z,2.90
2023-04-04T17:37:04.010Z,3.30
2023-04-04T17:39:32.268Z,2.92
2023-04-04T17:42:01.042Z,3.13
2023-04-04T17:44:29.262Z,2.92
2023-04-04T17:46:57.518Z,3.03
2023-04-04T17:49:27.267Z,2.72
2023-04-04T17:51:55.955Z,2.95
2023-04-04T17:54:26.832Z,3.15
2023-04-04T17:56:55.259Z,3.08
2023-04-04T17:59:24.298Z,2.90
2023-04-04T18:01:52.810Z,3.28
2023-04-04T18:04:22.241Z,3.35
2023-04-04T18:06:52.282Z,3.47
2023-04-04T18:09:20.548Z,3.20
2023-04-04T18:11:48.806Z,3.55
2023-04-04T18:14:16.976Z,3.90
2023-04-04T18:16:45.734Z,3.47
2023-04-04T18:19:14.202Z,3.63
2023-04-04T18:21:42.391Z,3.50
2023-04-04T18:24:13.780Z,3.50
2023-04-04T18:26:42.373Z,3.80
2023-04-04T18:29:10.685Z,3.25
2023-04-04T18:31:38.970Z,3.85
2023-04-04T18:34:07.271Z,3.80
2023-04-04T18:36:36.293Z,4.20
2023-04-04T18:39:04.803Z,4.10
2023-04-04T18:41:34.511Z,4.13
2023-04-04T18:44:02.718Z,4.15
2023-04-04T18:46:31.035Z,3.95
2023-04-04T18:48:59.289Z,4.00
2023-04-04T18:51:27.797Z,4.40
2023-04-04T18:53:56.134Z,3.65
2023-04-04T18:56:24.384Z,4.05
2023-04-04T18:58:54.044Z,3.88
2023-04-04T19:01:22.492Z,3.42
2023-04-04T19:03:51.801Z,3.70
2023-04-04T19:06:20.115Z,3.65
2023-04-04T19:08:49.444Z,4.15
2023-04-04T19:11:17.646Z,4.10
2023-04-04T19:13:46.037Z,4.18
2023-04-04T19:16:15.719Z,4.07
2023-04-04T19:18:44.057Z,3.92
2023-04-04T19:21:12.449Z,4.03
2023-04-04T19:23:40.821Z,4.20
2023-04-04T19:26:09.218Z,4.10
2023-04-04T19:28:37.550Z,4.82
2023-04-04T19:31:10.885Z,4.40
2023-04-04T19:33:41.225Z,4.57
2023-04-04T19:36:11.815Z,4.38
2023-04-04T19:38:42.617Z,4.15
2023-04-04T19:41:14.599Z,4.40
2023-04-04T19:43:45.351Z,4.47
2023-04-04T19:46:15.923Z,4.43
2023-04-04T19:48:48.800Z,4.20
2023-04-04T19:51:40.274Z,4.30
2023-04-04T19:54:14.918Z,4.13
2023-04-04T19:56:47.158Z,4.40
2023-04-04T19:59:51.943Z,4.78
2023-04-04T20:02:51.327Z,4.40
2023-04-04T20:06:00.950Z,4.72
2023-04-04T20:08:37.128Z,4.03
2023-04-04T20:11:06.760Z,4.32
2023-04-04T20:13:36.390Z,4.60
2023-04-04T20:16:10.227Z,4.28
2023-04-04T20:18:39.716Z,4.65
2023-04-04T20:21:11.660Z,4.53
2023-04-04T20:23:46.659Z,4.07
2023-04-04T20:26:41.006Z,4.65
2023-04-04T20:29:11.636Z,4.85
2023-04-04T20:31:43.522Z,4.32
2023-04-04T20:34:37.646Z,4.25
2023-04-04T20:37:10.989Z,4.45
2023-04-04T20:39:46.773Z,4.80
2023-04-04T20:42:40.445Z,5.28
2023-04-04T20:45:42.522Z,4.75
2023-04-04T20:51:01.279Z,4.55
2023-04-04T20:53:32.779Z,4.78
2023-04-04T20:56:02.406Z,4.95
2023-04-04T20:58:31.618Z,4.90
2023-04-04T21:01:01.382Z,5.63
2023-04-04T21:03:36.006Z,5.70
2023-04-04T21:06:11.470Z,5.63
2023-04-04T21:08:45.945Z,6.13
2023-04-04T21:11:15.452Z,5.90
2023-04-04T21:13:45.600Z,6.15
2023-04-04T21:16:16.968Z,6.45
2023-04-04T21:18:46.168Z,6.70
2023-04-04T21:21:18.651Z,7.60
2023-04-04T21:23:53.696Z,7.82
2023-04-04T21:26:28.597Z,7.00
2023-04-04T21:28:58.416Z,7.22
2023-04-04T21:31:29.740Z,7.28
2023-04-04T21:34:02.789Z,7.60
2023-04-04T21:36:31.318Z,6.80
2023-04-04T21:39:02.334Z,6.55
2023-04-04T21:41:32.097Z,6.20
2023-04-04T21:44:01.831Z,6.82
2023-04-04T21:46:32.717Z,6.95
2023-04-04T21:49:01.647Z,7.00
2023-04-04T21:51:29.952Z,6.40
2023-04-04T21:53:58.222Z,7.00
2023-04-04T21:56:31.331Z,6.57
2023-04-04T21:59:00.480Z,6.80
2023-04-04T22:01:30.322Z,6.40
2023-04-04T22:03:58.786Z,6.63
2023-04-04T22:06:27.730Z,6.53
2023-04-04T22:08:57.614Z,6.63
2023-04-04T22:11:28.347Z,6.05
2023-04-04T22:14:04.486Z,6.75
2023-04-04T22:16:37.099Z,6.38
2023-04-04T22:19:05.620Z,6.20
2023-04-04T22:21:36.618Z,6.30
2023-04-04T22:26:37.056Z,6.18
2023-04-04T22:29:08.541Z,6.83
2023-04-04T22:31:37.924Z,6.18
2023-04-04T22:34:06.630Z,6.90
2023-04-04T22:36:35.700Z,6.20
2023-04-04T22:39:04.016Z,6.45
2023-04-04T22:41:32.256Z,6.30
2023-04-04T22:44:01.878Z,5.95
2023-04-04T22:46:31.467Z,5.93
2023-04-04T22:49:06.744Z,5.90
2023-04-04T22:51:44.945Z,6.45
2023-04-04T22:54:15.570Z,6.55
2023-04-04T22:56:44.020Z,5.78
2023-04-04T22:59:13.651Z,6.05
2023-04-04T23:01:42.352Z,5.57
2023-04-04T23:04:10.782Z,6.30
2023-04-04T23:06:39.327Z,5.50
2023-04-04T23:09:08.885Z,5.80
2023-04-04T23:11:37.855Z,5.68
2023-04-04T23:14:09.219Z,5.88
2023-04-04T23:16:40.001Z,5.75
2023-04-04T23:19:08.379Z,5.72
2023-04-04T23:21:37.477Z,6.38
2023-04-04T23:24:07.038Z,6.72
2023-04-04T23:26:35.445Z,6.22
2023-04-04T23:29:04.370Z,5.90
2023-04-04T23:31:32.746Z,5.68
2023-04-04T23:34:02.403Z,5.47
2023-04-04T23:36:31.097Z,5.65
2023-04-04T23:38:59.518Z,5.60
2023-04-04T23:41:28.108Z,5.65
2023-04-04T23:43:56.468Z,5.10
2023-04-04T23:46:24.985Z,5.68
2023-04-04T23:48:53.298Z,5.47
2023-04-04T23:51:23.462Z,5.40
2023-04-04T23:53:51.855Z,5.22
2023-04-04T23:56:20.142Z,5.07
2023-04-04T23:58:48.331Z,4.72
